Terminal Aerodrome Forecast
Issued by NWS

Home | Current Version | Previous Version | Text Only | Print | Product List | Glossary On
Versions: 1 2 3 4 5 6 7 8 9 10 11 12 13 14 15 16
000
FTUS44 KOUN 311450 AAA
TAFLAW
TAF AMD
KLAW 311450Z 3115/0112 02014KT P6SM BKN030
      TEMPO 3115/3117 -TSRA BKN025CB
     FM312100 13010KT 4SM -TSRA BKN030CB
     FM010300 03005KT P6SM OVC035 PROB30 0103/0109 4SM -TSRA
      OVC025CB=

USA.gov is the U.S. government's official web portal to all federal, state and local government web resources and services.